Terminal Aerodrome Forecast
Issued by NWS Cleveland, OH

Home | Current Version | Previous Version | Graphics & Text | Print | Product List | Glossary On
Versions: 1 2 3 4 5 6 7 8 9 10 11 12 13 14 15 16
419
FTUS41 KCLE 240534
TAFMFD
TAF
KMFD 240534Z 2406/2506 15007KT P6SM VCSH SCT025 OVC050
      TEMPO 2406/2410 BKN025
     FM241000 18011KT P6SM BKN045
     FM241700 20018G28KT P6SM SCT045 BKN200
     FM250200 19014KT P6SM SCT045 BKN200=

USA.gov is the U.S. government's official web portal to all federal, state and local government web resources and services.